sensor_id;sensor_type;location;lat;lon;timestamp;temperature;humidity
20829;DHT22;10575;50.124;8.582;2023-03-23T00:02:26;14.40;99.90
20829;DHT22;10575;50.124;8.582;2023-03-23T00:04:52;14.30;99.90
20829;DHT22;10575;50.124;8.582;2023-03-23T00:07:22;14.30;99.90
20829;DHT22;10575;50.124;8.582;2023-03-23T00:09:48;14.20;99.90
20829;DHT22;10575;50.124;8.582;2023-03-23T00:12:20;14.20;99.90
20829;DHT22;10575;50.124;8.582;2023-03-23T00:14:46;14.20;99.90
20829;DHT22;10575;50.124;8.582;2023-03-23T00:17:13;14.30;99.90
20829;DHT22;10575;50.124;8.582;2023-03-23T00:19:39;14.40;99.90
20829;DHT22;10575;50.124;8.582;2023-03-23T00:22:15;14.40;99.90
20829;DHT22;10575;50.124;8.582;2023-03-23T00:24:42;14.40;99.90
20829;DHT22;10575;50.124;8.582;2023-03-23T00:27:08;14.40;99.90
20829;DHT22;10575;50.124;8.582;2023-03-23T00:29:34;14.50;99.90
20829;DHT22;10575;50.124;8.582;2023-03-23T00:32:00;14.50;99.90
20829;DHT22;10575;50.124;8.582;2023-03-23T00:34:27;14.50;99.90
20829;DHT22;10575;50.124;8.582;2023-03-23T00:36:58;14.50;99.90
20829;DHT22;10575;50.124;8.582;2023-03-23T00:39:25;14.60;99.90
20829;DHT22;10575;50.124;8.582;2023-03-23T00:41:52;14.60;99.90
20829;DHT22;10575;50.124;8.582;2023-03-23T00:44:18;14.60;99.90
20829;DHT22;10575;50.124;8.582;2023-03-23T00:46:48;14.70;99.90
20829;DHT22;10575;50.124;8.582;2023-03-23T00:49:16;14.50;99.90
20829;DHT22;10575;50.124;8.582;2023-03-23T00:51:42;14.40;99.90
20829;DHT22;10575;50.124;8.582;2023-03-23T00:54:09;14.40;99.90
20829;DHT22;10575;50.124;8.582;2023-03-23T00:56:35;14.40;99.90
20829;DHT22;10575;50.124;8.582;2023-03-23T00:59:01;14.30;99.90
20829;DHT22;10575;50.124;8.582;2023-03-23T01:01:27;14.40;99.90
20829;DHT22;10575;50.124;8.582;2023-03-23T01:03:52;14.30;99.90
20829;DHT22;10575;50.124;8.582;2023-03-23T01:06:30;14.30;99.90
20829;DHT22;10575;50.124;8.582;2023-03-23T01:08:57;14.40;99.90
20829;DHT22;10575;50.124;8.582;2023-03-23T01:11:23;14.40;99.90
20829;DHT22;10575;50.124;8.582;2023-03-23T01:13:50;14.40;99.90
20829;DHT22;10575;50.124;8.582;2023-03-23T01:16:16;14.40;99.90
20829;DHT22;10575;50.124;8.582;2023-03-23T01:18:42;14.40;99.90
20829;DHT22;10575;50.124;8.582;2023-03-23T01:21:14;14.40;99.90
20829;DHT22;10575;50.124;8.582;2023-03-23T01:23:41;14.30;99.90
20829;DHT22;10575;50.124;8.582;2023-03-23T01:26:09;14.30;99.90
20829;DHT22;10575;50.124;8.582;2023-03-23T01:28:35;14.30;99.90
20829;DHT22;10575;50.124;8.582;2023-03-23T01:31:07;14.20;99.90
20829;DHT22;10575;50.124;8.582;2023-03-23T01:33:33;14.20;99.90
20829;DHT22;10575;50.124;8.582;2023-03-23T01:36:04;14.20;99.90
20829;DHT22;10575;50.124;8.582;2023-03-23T01:38:30;14.10;99.90
20829;DHT22;10575;50.124;8.582;2023-03-23T01:40:56;14.10;99.90
20829;DHT22;10575;50.124;8.582;2023-03-23T01:43:21;14.10;99.90
20829;DHT22;10575;50.124;8.582;2023-03-23T01:45:47;14.10;99.90
20829;DHT22;10575;50.124;8.582;2023-03-23T01:48:17;14.10;99.90
20829;DHT22;10575;50.124;8.582;2023-03-23T01:50:51;14.10;99.90
20829;DHT22;10575;50.124;8.582;2023-03-23T01:53:20;14.10;99.90
20829;DHT22;10575;50.124;8.582;2023-03-23T01:55:47;14.00;99.90
20829;DHT22;10575;50.124;8.582;2023-03-23T01:58:18;14.00;99.90
20829;DHT22;10575;50.124;8.582;2023-03-23T02:00:45;14.00;99.90
20829;DHT22;10575;50.124;8.582;2023-03-23T02:03:11;14.00;99.90
20829;DHT22;10575;50.124;8.582;2023-03-23T02:05:40;14.00;99.90
20829;DHT22;10575;50.124;8.582;2023-03-23T02:08:08;14.00;99.90
20829;DHT22;10575;50.124;8.582;2023-03-23T02:10:36;14.00;99.90
20829;DHT22;10575;50.124;8.582;2023-03-23T02:13:04;14.10;99.90
20829;DHT22;10575;50.124;8.582;2023-03-23T02:15:47;14.00;99.90
20829;DHT22;10575;50.124;8.582;2023-03-23T02:18:28;13.90;99.90
20829;DHT22;10575;50.124;8.582;2023-03-23T02:21:20;14.00;99.90
20829;DHT22;10575;50.124;8.582;2023-03-23T02:34:59;14.00;99.90
20829;DHT22;10575;50.124;8.582;2023-03-23T02:37:48;14.00;99.90
20829;DHT22;10575;50.124;8.582;2023-03-23T02:40:21;13.90;99.90
20829;DHT22;10575;50.124;8.582;2023-03-23T02:42:51;13.90;99.90
20829;DHT22;10575;50.124;8.582;2023-03-23T02:45:19;14.00;99.90
20829;DHT22;10575;50.124;8.582;2023-03-23T02:47:49;14.00;99.90
20829;DHT22;10575;50.124;8.582;2023-03-23T02:50:16;14.00;99.90
20829;DHT22;10575;50.124;8.582;2023-03-23T02:52:44;14.00;99.90
20829;DHT22;10575;50.124;8.582;2023-03-23T02:55:11;14.00;99.90
20829;DHT22;10575;50.124;8.582;2023-03-23T02:57:39;13.90;99.90
20829;DHT22;10575;50.124;8.582;2023-03-23T03:00:07;14.00;99.90
20829;DHT22;10575;50.124;8.582;2023-03-23T03:02:42;14.00;99.90
20829;DHT22;10575;50.124;8.582;2023-03-23T03:05:21;14.00;99.90
20829;DHT22;10575;50.124;8.582;2023-03-23T03:10:57;13.70;99.90
20829;DHT22;10575;50.124;8.582;2023-03-23T03:16:24;13.50;99.90
20829;DHT22;10575;50.124;8.582;2023-03-23T03:18:59;13.40;99.90
20829;DHT22;10575;50.124;8.582;2023-03-23T03:21:30;13.40;99.90
20829;DHT22;10575;50.124;8.582;2023-03-23T03:24:00;13.50;99.90
20829;DHT22;10575;50.124;8.582;2023-03-23T03:26:28;13.70;99.90
20829;DHT22;10575;50.124;8.582;2023-03-23T03:28:55;13.70;99.90
20829;DHT22;10575;50.124;8.582;2023-03-23T03:31:26;13.70;99.90
20829;DHT22;10575;50.124;8.582;2023-03-23T03:33:53;13.70;99.90
20829;DHT22;10575;50.124;8.582;2023-03-23T03:36:22;13.80;99.90
20829;DHT22;10575;50.124;8.582;2023-03-23T03:38:51;13.80;99.90
20829;DHT22;10575;50.124;8.582;2023-03-23T03:41:18;13.80;99.90
20829;DHT22;10575;50.124;8.582;2023-03-23T03:43:44;13.80;99.90
20829;DHT22;10575;50.124;8.582;2023-03-23T03:46:09;13.70;99.90
20829;DHT22;10575;50.124;8.582;2023-03-23T03:48:35;13.60;99.90
20829;DHT22;10575;50.124;8.582;2023-03-23T03:51:01;13.60;99.90
20829;DHT22;10575;50.124;8.582;2023-03-23T03:53:28;13.40;99.90
20829;DHT22;10575;50.124;8.582;2023-03-23T03:55:53;13.50;99.90
20829;DHT22;10575;50.124;8.582;2023-03-23T03:58:25;13.60;99.90
20829;DHT22;10575;50.124;8.582;2023-03-23T04:00:59;13.70;99.90
20829;DHT22;10575;50.124;8.582;2023-03-23T04:03:25;13.70;99.90
20829;DHT22;10575;50.124;8.582;2023-03-23T04:05:53;13.70;99.90
20829;DHT22;10575;50.124;8.582;2023-03-23T04:08:23;13.80;99.90
20829;DHT22;10575;50.124;8.582;2023-03-23T04:10:49;13.80;99.90
20829;DHT22;10575;50.124;8.582;2023-03-23T04:13:15;13.80;99.90
20829;DHT22;10575;50.124;8.582;2023-03-23T04:15:41;13.80;99.90
20829;DHT22;10575;50.124;8.582;2023-03-23T04:18:06;13.80;99.90
20829;DHT22;10575;50.124;8.582;2023-03-23T04:20:32;13.70;99.90
20829;DHT22;10575;50.124;8.582;2023-03-23T04:23:00;13.70;99.90
20829;DHT22;10575;50.124;8.582;2023-03-23T04:25:27;13.60;99.90
20829;DHT22;10575;50.124;8.582;2023-03-23T04:27:53;13.70;99.90
20829;DHT22;10575;50.124;8.582;2023-03-23T04:30:21;13.60;99.90
20829;DHT22;10575;50.124;8.582;2023-03-23T04:32:48;13.60;99.90
20829;DHT22;10575;50.124;8.582;2023-03-23T04:35:21;13.50;99.90
20829;DHT22;10575;50.124;8.582;2023-03-23T04:37:48;13.50;99.90
20829;DHT22;10575;50.124;8.582;2023-03-23T04:40:15;13.50;99.90
20829;DHT22;10575;50.124;8.582;2023-03-23T04:42:42;13.60;99.90
20829;DHT22;10575;50.124;8.582;2023-03-23T04:45:13;13.60;99.90
20829;DHT22;10575;50.124;8.582;2023-03-23T04:47:40;13.50;99.90
20829;DHT22;10575;50.124;8.582;2023-03-23T04:50:11;13.40;99.90
20829;DHT22;10575;50.124;8.582;2023-03-23T04:52:38;13.30;99.90
20829;DHT22;10575;50.124;8.582;2023-03-23T04:55:06;13.30;99.90
20829;DHT22;10575;50.124;8.582;2023-03-23T04:57:32;13.30;99.90
20829;DHT22;10575;50.124;8.582;2023-03-23T04:59:59;13.40;99.90
20829;DHT22;10575;50.124;8.582;2023-03-23T05:02:24;13.40;99.90
20829;DHT22;10575;50.124;8.582;2023-03-23T05:04:50;13.60;99.90
20829;DHT22;10575;50.124;8.582;2023-03-23T05:07:16;13.60;99.90
20829;DHT22;10575;50.124;8.582;2023-03-23T05:09:41;13.60;99.90
20829;DHT22;10575;50.124;8.582;2023-03-23T05:12:11;13.50;99.90
20829;DHT22;10575;50.124;8.582;2023-03-23T05:14:40;13.30;99.90
20829;DHT22;10575;50.124;8.582;2023-03-23T05:17:06;13.40;99.90
20829;DHT22;10575;50.124;8.582;2023-03-23T05:19:32;13.40;99.90
20829;DHT22;10575;50.124;8.582;2023-03-23T05:21:58;13.40;99.90
20829;DHT22;10575;50.124;8.582;2023-03-23T05:24:30;13.30;99.90
20829;DHT22;10575;50.124;8.582;2023-03-23T05:27:00;13.30;99.90
20829;DHT22;10575;50.124;8.582;2023-03-23T05:29:27;13.40;99.90
20829;DHT22;10575;50.124;8.582;2023-03-23T05:31:55;13.30;99.90
20829;DHT22;10575;50.124;8.582;2023-03-23T05:34:21;13.30;99.90
20829;DHT22;10575;50.124;8.582;2023-03-23T05:36:47;13.10;99.90
20829;DHT22;10575;50.124;8.582;2023-03-23T05:39:12;13.10;99.90
20829;DHT22;10575;50.124;8.582;2023-03-23T05:41:39;13.10;99.90
20829;DHT22;10575;50.124;8.582;2023-03-23T05:44:04;13.20;99.90
20829;DHT22;10575;50.124;8.582;2023-03-23T05:46:30;13.10;99.90
20829;DHT22;10575;50.124;8.582;2023-03-23T05:48:56;13.10;99.90
20829;DHT22;10575;50.124;8.582;2023-03-23T05:51:21;13.10;99.90
20829;DHT22;10575;50.124;8.582;2023-03-23T05:53:47;13.10;99.90
20829;DHT22;10575;50.124;8.582;2023-03-23T05:56:13;13.00;99.90
20829;DHT22;10575;50.124;8.582;2023-03-23T05:58:39;13.00;99.90
20829;DHT22;10575;50.124;8.582;2023-03-23T06:01:09;13.00;99.90
20829;DHT22;10575;50.124;8.582;2023-03-23T06:03:34;12.90;99.90
20829;DHT22;10575;50.124;8.582;2023-03-23T06:06:03;12.90;99.90
20829;DHT22;10575;50.124;8.582;2023-03-23T06:08:29;13.00;99.90
20829;DHT22;10575;50.124;8.582;2023-03-23T06:10:55;13.00;99.90
20829;DHT22;10575;50.124;8.582;2023-03-23T06:13:22;13.00;99.90
20829;DHT22;10575;50.124;8.582;2023-03-23T06:15:49;13.10;99.90
20829;DHT22;10575;50.124;8.582;2023-03-23T06:18:15;13.10;99.90
20829;DHT22;10575;50.124;8.582;2023-03-23T06:20:40;13.00;99.90
20829;DHT22;10575;50.124;8.582;2023-03-23T06:23:08;12.90;99.90
20829;DHT22;10575;50.124;8.582;2023-03-23T06:25:34;12.90;99.90
20829;DHT22;10575;50.124;8.582;2023-03-23T06:28:00;13.00;99.90
20829;DHT22;10575;50.124;8.582;2023-03-23T06:30:25;13.00;99.90
20829;DHT22;10575;50.124;8.582;2023-03-23T06:32:52;13.00;99.90
20829;DHT22;10575;50.124;8.582;2023-03-23T06:35:18;13.00;99.90
20829;DHT22;10575;50.124;8.582;2023-03-23T06:37:44;13.10;99.90
20829;DHT22;10575;50.124;8.582;2023-03-23T06:40:09;13.10;99.90
20829;DHT22;10575;50.124;8.582;2023-03-23T06:42:36;13.20;99.90
20829;DHT22;10575;50.124;8.582;2023-03-23T06:45:03;13.20;99.90
20829;DHT22;10575;50.124;8.582;2023-03-23T06:47:29;13.30;99.90
20829;DHT22;10575;50.124;8.582;2023-03-23T06:49:55;13.40;99.90
20829;DHT22;10575;50.124;8.582;2023-03-23T06:52:22;13.30;99.90
20829;DHT22;10575;50.124;8.582;2023-03-23T06:54:48;13.30;99.90
20829;DHT22;10575;50.124;8.582;2023-03-23T06:57:14;13.40;99.90
20829;DHT22;10575;50.124;8.582;2023-03-23T06:59:40;13.40;99.90
20829;DHT22;10575;50.124;8.582;2023-03-23T07:02:11;13.50;99.90
20829;DHT22;10575;50.124;8.582;2023-03-23T07:04:38;13.60;99.90
20829;DHT22;10575;50.124;8.582;2023-03-23T07:07:05;13.60;99.90
20829;DHT22;10575;50.124;8.582;2023-03-23T07:09:31;13.70;99.90
20829;DHT22;10575;50.124;8.582;2023-03-23T07:11:57;13.60;99.90
20829;DHT22;10575;50.124;8.582;2023-03-23T07:14:23;13.60;99.90
20829;DHT22;10575;50.124;8.582;2023-03-23T07:16:49;13.50;99.90
20829;DHT22;10575;50.124;8.582;2023-03-23T07:19:14;13.40;99.90
20829;DHT22;10575;50.124;8.582;2023-03-23T07:21:40;13.40;99.90
20829;DHT22;10575;50.124;8.582;2023-03-23T07:24:09;13.40;99.90
20829;DHT22;10575;50.124;8.582;2023-03-23T07:26:36;13.20;99.90
20829;DHT22;10575;50.124;8.582;2023-03-23T07:29:02;13.20;99.90
20829;DHT22;10575;50.124;8.582;2023-03-23T07:31:28;13.30;99.90
20829;DHT22;10575;50.124;8.582;2023-03-23T07:33:53;13.30;99.90
20829;DHT22;10575;50.124;8.582;2023-03-23T07:36:19;13.20;99.90
20829;DHT22;10575;50.124;8.582;2023-03-23T07:38:45;13.30;99.90
20829;DHT22;10575;50.124;8.582;2023-03-23T07:41:10;13.20;99.90
20829;DHT22;10575;50.124;8.582;2023-03-23T07:43:36;13.20;99.90
20829;DHT22;10575;50.124;8.582;2023-03-23T07:46:02;13.40;99.90
20829;DHT22;10575;50.124;8.582;2023-03-23T07:48:28;13.40;99.90
20829;DHT22;10575;50.124;8.582;2023-03-23T07:50:53;13.40;99.90
20829;DHT22;10575;50.124;8.582;2023-03-23T07:53:19;13.40;99.90
20829;DHT22;10575;50.124;8.582;2023-03-23T07:55:44;13.50;99.90
20829;DHT22;10575;50.124;8.582;2023-03-23T07:58:10;13.50;99.90
20829;DHT22;10575;50.124;8.582;2023-03-23T08:00:35;13.50;99.90
20829;DHT22;10575;50.124;8.582;2023-03-23T08:03:01;13.50;99.90
20829;DHT22;10575;50.124;8.582;2023-03-23T08:05:28;13.50;99.90
20829;DHT22;10575;50.124;8.582;2023-03-23T08:07:54;13.50;99.90
20829;DHT22;10575;50.124;8.582;2023-03-23T08:10:20;13.50;99.90
20829;DHT22;10575;50.124;8.582;2023-03-23T08:12:54;13.40;99.90
20829;DHT22;10575;50.124;8.582;2023-03-23T08:15:21;13.40;99.90
20829;DHT22;10575;50.124;8.582;2023-03-23T08:17:47;13.40;99.90
20829;DHT22;10575;50.124;8.582;2023-03-23T08:20:13;13.50;99.90
20829;DHT22;10575;50.124;8.582;2023-03-23T08:22:40;13.40;99.90
20829;DHT22;10575;50.124;8.582;2023-03-23T08:25:07;13.50;99.90
20829;DHT22;10575;50.124;8.582;2023-03-23T08:27:34;13.50;99.90
20829;DHT22;10575;50.124;8.582;2023-03-23T08:29:59;13.40;99.90
20829;DHT22;10575;50.124;8.582;2023-03-23T08:32:25;13.50;99.90
20829;DHT22;10575;50.124;8.582;2023-03-23T08:34:51;13.50;99.90
20829;DHT22;10575;50.124;8.582;2023-03-23T08:37:17;13.50;99.90
20829;DHT22;10575;50.124;8.582;2023-03-23T08:39:43;13.60;99.90
20829;DHT22;10575;50.124;8.582;2023-03-23T08:42:10;13.70;99.90
20829;DHT22;10575;50.124;8.582;2023-03-23T08:44:36;13.80;99.90
20829;DHT22;10575;50.124;8.582;2023-03-23T08:47:02;13.80;99.90
20829;DHT22;10575;50.124;8.582;2023-03-23T08:49:29;13.80;99.90
20829;DHT22;10575;50.124;8.582;2023-03-23T08:51:56;13.90;99.90
20829;DHT22;10575;50.124;8.582;2023-03-23T08:54:22;13.80;99.90
20829;DHT22;10575;50.124;8.582;2023-03-23T08:56:47;13.90;99.90
20829;DHT22;10575;50.124;8.582;2023-03-23T08:59:13;13.90;99.90
20829;DHT22;10575;50.124;8.582;2023-03-23T09:01:38;13.90;99.90
20829;DHT22;10575;50.124;8.582;2023-03-23T09:04:04;13.90;99.90
20829;DHT22;10575;50.124;8.582;2023-03-23T09:06:30;14.00;99.90
20829;DHT22;10575;50.124;8.582;2023-03-23T09:08:55;14.20;99.90
20829;DHT22;10575;50.124;8.582;2023-03-23T09:11:22;14.40;99.90
20829;DHT22;10575;50.124;8.582;2023-03-23T09:13:48;14.30;99.90
20829;DHT22;10575;50.124;8.582;2023-03-23T09:16:13;14.30;99.90
20829;DHT22;10575;50.124;8.582;2023-03-23T09:18:39;14.50;99.90
20829;DHT22;10575;50.124;8.582;2023-03-23T09:21:05;14.60;99.90
20829;DHT22;10575;50.124;8.582;2023-03-23T09:23:32;14.70;99.90
20829;DHT22;10575;50.124;8.582;2023-03-23T09:26:00;14.70;99.90
20829;DHT22;10575;50.124;8.582;2023-03-23T09:28:26;14.70;99.90
20829;DHT22;10575;50.124;8.582;2023-03-23T09:30:55;14.70;99.90
20829;DHT22;10575;50.124;8.582;2023-03-23T09:33:23;14.80;99.90
20829;DHT22;10575;50.124;8.582;2023-03-23T09:35:48;14.90;99.90
20829;DHT22;10575;50.124;8.582;2023-03-23T09:38:15;15.00;99.90
20829;DHT22;10575;50.124;8.582;2023-03-23T09:41:01;15.20;99.90
20829;DHT22;10575;50.124;8.582;2023-03-23T09:46:59;15.80;99.90
20829;DHT22;10575;50.124;8.582;2023-03-23T09:49:46;16.10;99.90
20829;DHT22;10575;50.124;8.582;2023-03-23T09:52:16;16.80;99.90
20829;DHT22;10575;50.124;8.582;2023-03-23T09:54:50;17.10;99.90
20829;DHT22;10575;50.124;8.582;2023-03-23T09:57:32;17.20;99.90
20829;DHT22;10575;50.124;8.582;2023-03-23T10:00:09;17.20;99.90
20829;DHT22;10575;50.124;8.582;2023-03-23T10:02:55;17.10;99.90
20829;DHT22;10575;50.124;8.582;2023-03-23T10:05:40;17.20;99.90
20829;DHT22;10575;50.124;8.582;2023-03-23T10:08:15;17.00;99.90
20829;DHT22;10575;50.124;8.582;2023-03-23T10:13:52;16.60;99.90
20829;DHT22;10575;50.124;8.582;2023-03-23T10:16:26;16.40;99.90
20829;DHT22;10575;50.124;8.582;2023-03-23T10:19:03;16.20;99.90
20829;DHT22;10575;50.124;8.582;2023-03-23T10:21:36;16.20;99.90
20829;DHT22;10575;50.124;8.582;2023-03-23T10:24:08;16.10;99.90
20829;DHT22;10575;50.124;8.582;2023-03-23T10:26:47;16.00;99.90
20829;DHT22;10575;50.124;8.582;2023-03-23T10:29:39;15.80;99.90
20829;DHT22;10575;50.124;8.582;2023-03-23T10:32:12;15.80;99.90
20829;DHT22;10575;50.124;8.582;2023-03-23T10:34:57;15.90;99.90
20829;DHT22;10575;50.124;8.582;2023-03-23T10:37:28;15.90;99.90
20829;DHT22;10575;50.124;8.582;2023-03-23T10:40:03;16.00;99.90
20829;DHT22;10575;50.124;8.582;2023-03-23T10:42:35;16.20;99.90
20829;DHT22;10575;50.124;8.582;2023-03-23T10:45:16;16.30;99.90
20829;DHT22;10575;50.124;8.582;2023-03-23T10:47:49;16.40;99.90
20829;DHT22;10575;50.124;8.582;2023-03-23T10:50:22;16.10;99.90
20829;DHT22;10575;50.124;8.582;2023-03-23T10:52:50;16.20;99.90
20829;DHT22;10575;50.124;8.582;2023-03-23T10:55:21;16.00;99.90
20829;DHT22;10575;50.124;8.582;2023-03-23T10:58:12;16.00;99.90
20829;DHT22;10575;50.124;8.582;2023-03-23T11:00:46;16.10;99.90
20829;DHT22;10575;50.124;8.582;2023-03-23T11:05:50;15.90;99.90
20829;DHT22;10575;50.124;8.582;2023-03-23T11:08:23;16.00;99.90
20829;DHT22;10575;50.124;8.582;2023-03-23T11:10:56;16.00;99.90
20829;DHT22;10575;50.124;8.582;2023-03-23T11:13:27;15.70;99.90
20829;DHT22;10575;50.124;8.582;2023-03-23T11:15:54;15.60;99.90
20829;DHT22;10575;50.124;8.582;2023-03-23T11:18:34;15.70;99.90
20829;DHT22;10575;50.124;8.582;2023-03-23T11:21:02;15.70;99.90
20829;DHT22;10575;50.124;8.582;2023-03-23T11:23:36;15.60;99.90
20829;DHT22;10575;50.124;8.582;2023-03-23T11:26:18;15.70;99.90
20829;DHT22;10575;50.124;8.582;2023-03-23T11:31:19;16.20;99.90
20829;DHT22;10575;50.124;8.582;2023-03-23T11:37:12;17.10;99.90
20829;DHT22;10575;50.124;8.582;2023-03-23T11:39:48;17.20;99.90
20829;DHT22;10575;50.124;8.582;2023-03-23T11:42:22;17.60;99.90
20829;DHT22;10575;50.124;8.582;2023-03-23T11:44:51;17.70;99.90
20829;DHT22;10575;50.124;8.582;2023-03-23T11:47:32;17.70;99.90
20829;DHT22;10575;50.124;8.582;2023-03-23T11:50:43;17.60;99.90
20829;DHT22;10575;50.124;8.582;2023-03-23T11:56:07;17.30;99.90
20829;DHT22;10575;50.124;8.582;2023-03-23T11:58:34;17.40;99.90
20829;DHT22;10575;50.124;8.582;2023-03-23T12:01:06;17.40;99.90
20829;DHT22;10575;50.124;8.582;2023-03-23T12:03:42;17.50;99.90
20829;DHT22;10575;50.124;8.582;2023-03-23T12:06:14;17.70;99.90
20829;DHT22;10575;50.124;8.582;2023-03-23T12:11:56;17.80;99.90
20829;DHT22;10575;50.124;8.582;2023-03-23T12:14:47;17.70;99.90
20829;DHT22;10575;50.124;8.582;2023-03-23T12:17:23;17.50;99.90
20829;DHT22;10575;50.124;8.582;2023-03-23T12:20:17;17.40;99.90
20829;DHT22;10575;50.124;8.582;2023-03-23T12:39:33;16.80;99.90
20829;DHT22;10575;50.124;8.582;2023-03-23T12:42:06;16.90;99.90
20829;DHT22;10575;50.124;8.582;2023-03-23T12:44:39;17.00;99.90
20829;DHT22;10575;50.124;8.582;2023-03-23T12:47:23;17.20;99.90
20829;DHT22;10575;50.124;8.582;2023-03-23T12:50:06;17.20;99.90
20829;DHT22;10575;50.124;8.582;2023-03-23T12:55:46;17.40;99.90
20829;DHT22;10575;50.124;8.582;2023-03-23T12:58:26;17.20;99.90
20829;DHT22;10575;50.124;8.582;2023-03-23T13:01:01;17.10;99.90
20829;DHT22;10575;50.124;8.582;2023-03-23T13:06:33;17.10;99.90
20829;DHT22;10575;50.124;8.582;2023-03-23T13:11:33;17.00;99.90
20829;DHT22;10575;50.124;8.582;2023-03-23T13:20:18;17.20;99.90
20829;DHT22;10575;50.124;8.582;2023-03-23T13:23:20;17.50;99.90
20829;DHT22;10575;50.124;8.582;2023-03-23T13:25:51;17.40;99.90
20829;DHT22;10575;50.124;8.582;2023-03-23T13:28:19;17.50;99.90
20829;DHT22;10575;50.124;8.582;2023-03-23T13:30:54;17.40;99.90
20829;DHT22;10575;50.124;8.582;2023-03-23T13:33:20;17.50;99.90
20829;DHT22;10575;50.124;8.582;2023-03-23T13:35:49;17.50;99.90
20829;DHT22;10575;50.124;8.582;2023-03-23T13:38:25;17.60;99.90
20829;DHT22;10575;50.124;8.582;2023-03-23T13:40:52;17.50;99.90
20829;DHT22;10575;50.124;8.582;2023-03-23T13:43:34;17.30;99.90
20829;DHT22;10575;50.124;8.582;2023-03-23T13:46:10;17.20;99.90
20829;DHT22;10575;50.124;8.582;2023-03-23T13:48:47;17.10;99.90
20829;DHT22;10575;50.124;8.582;2023-03-23T13:56:43;17.10;99.90
20829;DHT22;10575;50.124;8.582;2023-03-23T13:59:28;16.90;99.90
20829;DHT22;10575;50.124;8.582;2023-03-23T14:01:55;16.90;99.90
20829;DHT22;10575;50.124;8.582;2023-03-23T14:04:23;16.80;99.90
20829;DHT22;10575;50.124;8.582;2023-03-23T14:06:56;16.70;99.90
20829;DHT22;10575;50.124;8.582;2023-03-23T14:09:36;16.60;99.90
20829;DHT22;10575;50.124;8.582;2023-03-23T14:12:05;16.40;99.90
20829;DHT22;10575;50.124;8.582;2023-03-23T14:14:46;16.20;99.90
20829;DHT22;10575;50.124;8.582;2023-03-23T14:17:16;16.10;99.90
20829;DHT22;10575;50.124;8.582;2023-03-23T14:19:47;16.10;99.90
20829;DHT22;10575;50.124;8.582;2023-03-23T14:22:24;16.10;99.90
20829;DHT22;10575;50.124;8.582;2023-03-23T14:24:52;16.10;99.90
20829;DHT22;10575;50.124;8.582;2023-03-23T14:27:21;15.90;99.90
20829;DHT22;10575;50.124;8.582;2023-03-23T14:29:58;15.80;99.90
20829;DHT22;10575;50.124;8.582;2023-03-23T14:32:24;15.80;99.90
20829;DHT22;10575;50.124;8.582;2023-03-23T14:34:52;15.90;99.90
20829;DHT22;10575;50.124;8.582;2023-03-23T14:37:18;15.90;99.90
20829;DHT22;10575;50.124;8.582;2023-03-23T14:39:46;15.90;99.90
20829;DHT22;10575;50.124;8.582;2023-03-23T14:42:20;15.80;99.90
20829;DHT22;10575;50.124;8.582;2023-03-23T14:44:48;15.80;99.90
20829;DHT22;10575;50.124;8.582;2023-03-23T14:47:30;15.90;99.90
20829;DHT22;10575;50.124;8.582;2023-03-23T14:49:58;15.80;99.90
20829;DHT22;10575;50.124;8.582;2023-03-23T14:52:32;15.70;99.90
20829;DHT22;10575;50.124;8.582;2023-03-23T14:55:20;15.80;99.90
20829;DHT22;10575;50.124;8.582;2023-03-23T14:57:47;15.90;99.90
20829;DHT22;10575;50.124;8.582;2023-03-23T15:00:21;15.90;99.90
20829;DHT22;10575;50.124;8.582;2023-03-23T15:02:50;16.00;99.90
20829;DHT22;10575;50.124;8.582;2023-03-23T15:05:26;16.20;99.90
20829;DHT22;10575;50.124;8.582;2023-03-23T15:08:00;16.30;99.90
20829;DHT22;10575;50.124;8.582;2023-03-23T15:10:26;16.40;99.90
20829;DHT22;10575;50.124;8.582;2023-03-23T15:12:52;16.40;99.90
20829;DHT22;10575;50.124;8.582;2023-03-23T15:15:29;16.40;99.90
20829;DHT22;10575;50.124;8.582;2023-03-23T15:17:56;16.40;99.90
20829;DHT22;10575;50.124;8.582;2023-03-23T15:20:23;16.40;99.90
20829;DHT22;10575;50.124;8.582;2023-03-23T15:22:49;16.40;99.90
20829;DHT22;10575;50.124;8.582;2023-03-23T15:25:21;16.30;99.90
20829;DHT22;10575;50.124;8.582;2023-03-23T15:27:53;16.40;99.90
20829;DHT22;10575;50.124;8.582;2023-03-23T15:32:47;16.40;99.90
20829;DHT22;10575;50.124;8.582;2023-03-23T15:35:17;16.30;99.90
20829;DHT22;10575;50.124;8.582;2023-03-23T15:37:48;16.20;99.90
20829;DHT22;10575;50.124;8.582;2023-03-23T15:40:22;16.20;99.90
20829;DHT22;10575;50.124;8.582;2023-03-23T15:42:49;16.20;99.90
20829;DHT22;10575;50.124;8.582;2023-03-23T15:45:25;16.20;99.90
20829;DHT22;10575;50.124;8.582;2023-03-23T15:47:51;16.10;99.90
20829;DHT22;10575;50.124;8.582;2023-03-23T15:50:32;16.00;99.90
20829;DHT22;10575;50.124;8.582;2023-03-23T15:52:58;15.90;99.90
20829;DHT22;10575;50.124;8.582;2023-03-23T15:55:35;16.00;99.90
20829;DHT22;10575;50.124;8.582;2023-03-23T15:58:08;15.90;99.90
20829;DHT22;10575;50.124;8.582;2023-03-23T16:00:35;15.90;99.90
20829;DHT22;10575;50.124;8.582;2023-03-23T16:03:04;15.80;99.90
20829;DHT22;10575;50.124;8.582;2023-03-23T16:05:30;15.70;99.90
20829;DHT22;10575;50.124;8.582;2023-03-23T16:07:57;15.80;99.90
20829;DHT22;10575;50.124;8.582;2023-03-23T16:10:23;15.80;99.90
20829;DHT22;10575;50.124;8.582;2023-03-23T16:12:49;15.80;99.90
20829;DHT22;10575;50.124;8.582;2023-03-23T16:15:15;15.70;99.90
20829;DHT22;10575;50.124;8.582;2023-03-23T16:17:42;15.60;99.90
20829;DHT22;10575;50.124;8.582;2023-03-23T16:20:16;15.70;99.90
20829;DHT22;10575;50.124;8.582;2023-03-23T16:22:42;15.60;99.90
20829;DHT22;10575;50.124;8.582;2023-03-23T16:25:08;15.60;99.90
20829;DHT22;10575;50.124;8.582;2023-03-23T16:27:35;15.60;99.90
20829;DHT22;10575;50.124;8.582;2023-03-23T16:30:01;15.40;99.90
20829;DHT22;10575;50.124;8.582;2023-03-23T16:32:28;15.30;99.90
20829;DHT22;10575;50.124;8.582;2023-03-23T16:34:54;15.10;99.90
20829;DHT22;10575;50.124;8.582;2023-03-23T16:37:19;15.10;99.90
20829;DHT22;10575;50.124;8.582;2023-03-23T16:39:46;15.00;99.90
20829;DHT22;10575;50.124;8.582;2023-03-23T16:42:11;15.00;99.90
20829;DHT22;10575;50.124;8.582;2023-03-23T16:44:37;15.00;99.90
20829;DHT22;10575;50.124;8.582;2023-03-23T16:47:02;14.90;99.90
20829;DHT22;10575;50.124;8.582;2023-03-23T16:49:28;15.00;99.90
20829;DHT22;10575;50.124;8.582;2023-03-23T16:51:53;14.90;99.90
20829;DHT22;10575;50.124;8.582;2023-03-23T16:54:19;14.80;99.90
20829;DHT22;10575;50.124;8.582;2023-03-23T16:56:44;14.90;99.90
20829;DHT22;10575;50.124;8.582;2023-03-23T16:59:12;14.70;99.90
20829;DHT22;10575;50.124;8.582;2023-03-23T17:01:37;14.70;99.90
20829;DHT22;10575;50.124;8.582;2023-03-23T17:04:03;14.60;99.90